Terminal Aerodrome Forecast
Issued by NWS Wakefield, VA

Home | Current Version | Previous Version | Text Only | Print | Product List | Glossary On
Versions: 1 2 3 4 5 6 7 8 9 10 11 12 13 14 15 16 17 18 19 20 21 22 23
152
FTUS41 KAKQ 311723
TAFECG
TAF
KECG 311723Z 3118/0118 07008KT P6SM SCT025 BKN045
     FM312000 07007KT P6SM VCSH BKN035
     FM010100 08005KT P6SM BKN030
     FM010800 07005KT 5SM BR OVC015
     FM011000 07007KT 2SM BR OVC008
     FM011300 07010KT P6SM OVC035=

USA.gov is the U.S. government's official web portal to all federal, state and local government web resources and services.